METAR Data
IDs: Format: Raw Decoded Include TAF

Data at: 2155 UTC 01 Dec 2021

KLJF 012135Z 25009KT 10SM 12/01 A2957 RMK AO2